Flight Track Log - Related Links

Times and Time Zones

All times are in EDT time to prevent confusion due to time zone crossing. See the ASQ4538 flight status page for this flight to view local times or setup timezone preferences in your user account.

Time Position Orientation Groundspeed Altitude Reporting Facility
EDT Latitude Longitude Course Direction KTS MPH feet Rate Location/Type
Sun 10:36:44 PM 42.8522 -85.4906 107° East 157 181 2,900  Level Cleveland Center
Sun 10:37:43 PM 42.8342 -85.4097 107° East 217 250 5,000 2,350 Climbing Chicago Center
Sun 10:38:44 PM 42.8206 -85.3081 100° East 265 305 7,600 2,683 Climbing Chicago Center
Sun 10:39:46 PM 42.8231 -85.1969 88° East 289 333 10,500 2,390 Climbing Chicago Center
Sun 10:40:47 PM 42.8200 -85.0819 92° East 310 357 12,500 1,918 Climbing Chicago Center
Sun 10:41:48 PM 42.7814 -84.9356 110° East 342 394 14,400 1,770 Climbing Chicago Center
Sun 10:42:00 PM 42.7196 -84.8681 107° East  Level FlightAware Approximate
Sun 10:42:49 PM 42.7508 -84.8044 108° East 359 413 16,100  Level Chicago Center
Sun 10:43:51 PM 42.7319 -84.6661 100° East 371 427 17,600 1,272 Climbing Chicago Center
Sun 10:45:53 PM 42.6906 -84.3706 101° East 398 458 20,000 1,161 Climbing Chicago Center
Sun 10:46:57 PM 42.6672 -84.2186 102° East 413 475 21,200 1,190 Climbing Cleveland Center
Sun 10:47:59 PM 42.6431 -84.0628 102° East 417 480 22,500 1,415 Climbing Cleveland Center
Sun 10:49:00 PM 42.6147 -83.8708 101° East 427 491 24,100 1,377 Climbing Cleveland Center
Sun 10:50:01 PM 42.5908 -83.7092 101° East 430 495 25,300 1,220 Climbing Cleveland Center
Sun 10:51:03 PM 42.5658 -83.5458 102° East 434 499 26,600 1,268 Climbing Cleveland Center
Sun 10:52:04 PM 42.5411 -83.3828 102° East 435 501 27,900 1,180 Climbing Cleveland Center
Sun 10:53:05 PM 42.5156 -83.2203 102° East 436 502 29,000 878 Climbing Cleveland Center
Sun 10:54:07 PM 42.4886 -83.0531 102° East 448 516 29,700 878 Climbing Cleveland Center
Sun 10:55:08 PM 42.4625 -82.8842 102° East 452 520 30,800 639 Climbing Cleveland Center
Sun 10:56:09 PM 42.4353 -82.7133 102° East 460 529 31,000 98 Climbing Cleveland Center
Sun 10:57:10 PM 42.4064 -82.5369 102° East 475 547 31,000  Level Cleveland Center
Sun 10:58:11 PM 42.3772 -82.3619 103° East 476 548 31,000  Level Cleveland Center
Sun 10:59:13 PM 42.3475 -82.1833 103° East 482 555 31,000  Level Cleveland Center
Sun 11:00:14 PM 42.3142 -81.9811 103° East 482 555 31,000  Level Cleveland Center
Sun 11:01:15 PM 42.2847 -81.8061 103° East 476 548 31,000  Level Cleveland Center
Sun 11:03:17 PM 42.2258 -81.4653 103° East 460 529 31,000  Level Cleveland Center
Sun 11:04:18 PM 42.1986 -81.3028 103° East 442 509 31,000 738 Level Cleveland Center
Sun 11:05:19 PM 42.1703 -81.1464 104° East 428 493 32,500 976 Climbing Cleveland Center
Sun 11:06:21 PM 42.1436 -80.9919 103° East 424 488 33,000 244 Climbing Cleveland Center
Sun 11:07:22 PM 42.1150 -80.8353 104° East 423 487 33,000  Level Cleveland Center
Sun 11:08:23 PM 42.0867 -80.6767 103° East 427 491 33,000  Level Cleveland Center
Sun 11:09:24 PM 42.0581 -80.5197 104° East 428 493 33,000  Level Cleveland Center
Sun 11:10:25 PM 42.0311 -80.3681 103° East 416 479 33,000  Level Cleveland Center
Sun 11:11:26 PM 41.9928 -80.2189 109° East 419 482 33,000  Level Cleveland Center
Sun 11:12:27 PM 41.9411 -80.0711 115° Southeast 430 495 33,000  Level Cleveland Center
Sun 11:13:28 PM 41.8886 -79.9206 115° Southeast 437 503 33,000  Level Cleveland Center
Sun 11:14:29 PM 41.8364 -79.7703 115° Southeast 438 504 33,000  Level Cleveland Center
Sun 11:15:30 PM 41.7797 -79.6114 116° Southeast 439 505 33,000  Level Cleveland Center
Sun 11:16:31 PM 41.6803 -79.4961 139° Southeast 473 544 33,000  Level Cleveland Center
Sun 11:17:32 PM 41.5731 -79.3864 143° Southeast 483 556 33,000  Level Cleveland Center
Sun 11:18:33 PM 41.4689 -79.2789 142° Southeast 480 552 33,000  Level Cleveland Center
Sun 11:19:34 PM 41.4231 -79.1200 111° Southeast 468 539 33,000  Level Cleveland Center
Sun 11:20:35 PM 41.4194 -78.9583 92° East 445 512 33,000 -393 Level Cleveland Center
Sun 11:21:36 PM 41.4139 -78.7939 93° East 444 511 32,200 -934 Descending Cleveland Center
Sun 11:22:37 PM 41.4092 -78.6303 92° East 444 511 31,100 -590 Descending Cleveland Center
Sun 11:23:38 PM 41.4042 -78.4658 92° East 443 510 31,000 -49 Descending Cleveland Center
Sun 11:24:39 PM 41.3989 -78.3025 92° East 442 509 31,000  Level Cleveland Center
Sun 11:25:40 PM 41.3936 -78.1381 92° East 443 510 31,000  Level Cleveland Center
Sun 11:26:26 PM 41.3864 -78.0050 94° East 452 520 31,000  Level New York Center
Sun 11:27:26 PM 41.3817 -77.8414 92° East 444 511 31,000  Level New York Center
Sun 11:28:26 PM 41.3747 -77.6775 93° East 444 511 31,000  Level New York Center
Sun 11:29:26 PM 41.3631 -77.5158 95° East 449 517 31,000  Level New York Center
Sun 11:30:26 PM 41.3389 -77.3533 101° East 444 511 31,000 -250 Level New York Center
Sun 11:31:26 PM 41.3167 -77.1908 100° East 444 511 30,500 -1,200 Descending New York Center
Sun 11:32:26 PM 41.2939 -77.0311 101° East 444 511 28,600 -1,900 Descending New York Center
Sun 11:33:26 PM 41.2686 -76.8769 102° East 433 498 26,700 -1,950 Descending New York Center
Sun 11:34:26 PM 41.2467 -76.7342 102° East 418 481 24,700 -1,750 Descending New York Center
Sun 11:35:26 PM 41.2267 -76.5917 101° East 399 459 23,200 -1,550 Descending New York Center
Sun 11:36:26 PM 41.2042 -76.4519 102° East 394 453 21,600 -1,600 Descending New York Center
Sun 11:37:26 PM 41.1800 -76.3036 102° East 384 442 20,000 -1,200 Descending New York Center
Sun 11:38:26 PM 41.1642 -76.1950 101° East 379 436 19,200 -500 Descending New York Center
Sun 11:39:26 PM 41.1381 -76.0386 102° East 367 422 19,000 -100 Descending New York Center
Sun 11:40:26 PM 41.1058 -75.9150 109° East 362 417 19,000 -600 Level New York Center
Sun 11:41:26 PM 41.0697 -75.7856 110° East 362 417 17,800 -1,400 Descending New York Center
Sun 11:42:26 PM 41.0389 -75.6758 110° East 355 409 16,200 -1,850 Descending New York Center
Sun 11:43:26 PM 41.0006 -75.5439 111° Southeast 350 403 14,100 -1,750 Descending New York Center
Sun 11:44:26 PM 40.9733 -75.4403 109° East 344 396 12,700 -1,500 Descending New York Center
Sun 11:45:26 PM 40.9367 -75.3142 111° Southeast 339 390 11,100 -1,300 Descending New York Center
Sun 11:46:26 PM 40.9072 -75.2106 111° Southeast 315 362 10,100 -1,000 Descending New York Center
Sun 11:47:26 PM 40.8817 -75.1131 109° East 289 333 9,100 -550 Descending New York Center
Sun 11:48:26 PM 40.8578 -75.0264 110° East 274 315 9,000 -50 Descending New York Center
Sun 11:49:26 PM 40.8736 -74.9367 77° East 252 290 9,000  Level New York Center
Sun 11:50:26 PM 40.9142 -74.8486 59° Northeast 247 284 9,000  Level New York Center
Sun 11:51:26 PM 40.9456 -74.7792 59° Northeast 229 264 9,000 -600 Level New York Center
Sun 11:52:26 PM 40.9769 -74.7122 58° Northeast 219 252 7,800 -900 Descending New York Center
Sun 11:53:26 PM 41.0086 -74.6400 60° Northeast 213 245 7,200 -400 Descending New York Center
Sun 11:54:26 PM 41.0400 -74.5756 57° Northeast 208 239 7,000 -550 Descending New York Center
Sun 11:55:26 PM 41.0486 -74.4992 81° East 208 239 6,100 -450 Descending New York Center
Sun 11:56:26 PM 40.9961 -74.5156 193° South 117 135 6,100 -50 Level New York Center
Sun 11:57:26 PM 40.9544 -74.5792 229° Southwest 187 215 6,000 -50 Descending New York Center
Sun 11:58:26 PM 40.8928 -74.6114 202° Southwest 235 270 6,000  Level New York Center
Sun 11:59:21 PM 40.8333 -74.6167 184° South 241 277 6,000  Level New York TRACON
Mon 12:00:21 AM 40.7667 -74.6333 191° South 238 274 6,000  Level New York TRACON
Mon 12:01:21 AM 40.7000 -74.6500 191° South 237 273 6,000  Level New York TRACON
Mon 12:02:21 AM 40.6333 -74.6667 191° South 237 273 6,000  Level New York TRACON
Mon 12:03:21 AM 40.5667 -74.6833 191° South 237 273 6,000 -400 Level New York TRACON
Mon 12:04:21 AM 40.5167 -74.7000 194° South 219 252 5,200 -450 Descending New York TRACON
Mon 12:05:21 AM 40.4667 -74.7000 180° South 204 235 5,100 -474 Descending New York TRACON
Mon 12:06:15 AM 40.4167 -74.6667 153° Southeast 191 220 4,300 -947 Descending New York TRACON
Mon 12:07:15 AM 40.3833 -74.6167 131° Southeast 185 213 3,300 -619 Descending New York TRACON
Mon 12:08:21 AM 40.3667 -74.5667 114° Southeast 171 197 3,000 -143 Descending New York TRACON
Mon 12:09:21 AM 40.3500 -74.5000 108° East 171 197 3,000  Level New York TRACON
Mon 12:10:21 AM 40.3333 -74.4500 114° Southeast 172 198 3,000  Level New York TRACON
Mon 12:11:21 AM 40.3167 -74.3833 108° East 176 203 3,000  Level New York TRACON
Mon 12:12:15 AM 40.3333 -74.3500 57° Northeast 140 161 3,000  Level New York TRACON
Mon 12:13:21 AM 40.3667 -74.3500 360° North 136 157 3,000  Level New York TRACON
Mon 12:14:21 AM 40.4167 -74.3500 360° North 138 159 3,000  Level New York TRACON
Mon 12:15:21 AM 40.4500 -74.3167 37° Northeast 140 161 3,000  Level New York TRACON
Mon 12:16:21 AM 40.4833 -74.3000 21° North 137 158 3,000  Level New York TRACON
Mon 12:17:21 AM 40.5167 -74.2833 21° North 132 152 3,000  Level New York TRACON
Mon 12:18:15 AM 40.5500 -74.2667 21° North 134 154 3,000 -316 Level New York TRACON
Mon 12:19:15 AM 40.5833 -74.2333 37° Northeast 134 154 2,400 -619 Descending New York TRACON
Mon 12:20:21 AM 40.6167 -74.2167 21° North 117 135 1,700 -619 Descending New York TRACON
Mon 12:21:21 AM 40.6333 -74.2000 37° Northeast 105 121 1,100 -667 Descending New York TRACON
Mon 12:22:27 AM 40.6667 -74.1833 21° North 110 127 300 -727 Descending New York TRACON

Login

Don't have an account? Register now (free) for customized features, flight alerts, and more!